sensor_id;sensor_type;location;lat;lon;timestamp;temperature;humidity
16404;DHT22;8311;50.158;8.642;2023-04-10T00:00:45;20.70;42.50
16404;DHT22;8311;50.158;8.642;2023-04-10T00:03:40;20.60;42.50
16404;DHT22;8311;50.158;8.642;2023-04-10T00:06:34;20.60;42.50
16404;DHT22;8311;50.158;8.642;2023-04-10T00:09:27;20.60;42.40
16404;DHT22;8311;50.158;8.642;2023-04-10T00:12:21;20.60;42.40
16404;DHT22;8311;50.158;8.642;2023-04-10T00:15:16;20.60;42.50
16404;DHT22;8311;50.158;8.642;2023-04-10T00:18:10;20.60;42.50
16404;DHT22;8311;50.158;8.642;2023-04-10T00:21:04;20.60;42.50
16404;DHT22;8311;50.158;8.642;2023-04-10T00:23:57;20.60;42.50
16404;DHT22;8311;50.158;8.642;2023-04-10T00:26:51;20.60;42.50
16404;DHT22;8311;50.158;8.642;2023-04-10T00:29:44;20.60;42.50
16404;DHT22;8311;50.158;8.642;2023-04-10T00:32:39;20.60;42.50
16404;DHT22;8311;50.158;8.642;2023-04-10T00:35:33;20.60;42.50
16404;DHT22;8311;50.158;8.642;2023-04-10T00:38:26;20.60;42.50
16404;DHT22;8311;50.158;8.642;2023-04-10T00:41:19;20.60;42.50
16404;DHT22;8311;50.158;8.642;2023-04-10T00:44:12;20.60;42.50
16404;DHT22;8311;50.158;8.642;2023-04-10T00:47:05;20.60;42.50
16404;DHT22;8311;50.158;8.642;2023-04-10T00:50:00;20.60;42.50
16404;DHT22;8311;50.158;8.642;2023-04-10T00:52:54;20.60;42.50
16404;DHT22;8311;50.158;8.642;2023-04-10T00:55:48;20.60;42.50
16404;DHT22;8311;50.158;8.642;2023-04-10T00:58:42;20.60;42.50
16404;DHT22;8311;50.158;8.642;2023-04-10T01:01:35;20.60;42.40
16404;DHT22;8311;50.158;8.642;2023-04-10T01:04:29;20.60;42.50
16404;DHT22;8311;50.158;8.642;2023-04-10T01:07:34;20.60;42.50
16404;DHT22;8311;50.158;8.642;2023-04-10T01:10:35;20.60;42.50
16404;DHT22;8311;50.158;8.642;2023-04-10T01:13:34;20.60;42.40
16404;DHT22;8311;50.158;8.642;2023-04-10T01:16:35;20.60;42.40
16404;DHT22;8311;50.158;8.642;2023-04-10T01:23:15;20.60;42.40
16404;DHT22;8311;50.158;8.642;2023-04-10T01:26:12;20.60;42.40
16404;DHT22;8311;50.158;8.642;2023-04-10T01:29:10;20.60;42.50
16404;DHT22;8311;50.158;8.642;2023-04-10T01:32:10;20.60;42.40
16404;DHT22;8311;50.158;8.642;2023-04-10T01:35:06;20.60;42.40
16404;DHT22;8311;50.158;8.642;2023-04-10T01:38:04;20.60;42.40
16404;DHT22;8311;50.158;8.642;2023-04-10T01:40:59;20.60;42.40
16404;DHT22;8311;50.158;8.642;2023-04-10T01:43:54;20.60;42.40
16404;DHT22;8311;50.158;8.642;2023-04-10T01:46:49;20.60;42.40
16404;DHT22;8311;50.158;8.642;2023-04-10T01:49:44;20.60;42.40
16404;DHT22;8311;50.158;8.642;2023-04-10T01:52:40;20.60;42.40
16404;DHT22;8311;50.158;8.642;2023-04-10T01:55:33;20.60;42.40
16404;DHT22;8311;50.158;8.642;2023-04-10T01:58:28;20.60;42.40
16404;DHT22;8311;50.158;8.642;2023-04-10T02:01:22;20.60;42.40
16404;DHT22;8311;50.158;8.642;2023-04-10T02:04:22;20.60;42.40
16404;DHT22;8311;50.158;8.642;2023-04-10T02:07:21;20.60;42.40
16404;DHT22;8311;50.158;8.642;2023-04-10T02:10:21;20.60;42.40
16404;DHT22;8311;50.158;8.642;2023-04-10T02:13:19;20.60;42.40
16404;DHT22;8311;50.158;8.642;2023-04-10T02:16:14;20.60;42.40
16404;DHT22;8311;50.158;8.642;2023-04-10T02:19:12;20.60;42.40
16404;DHT22;8311;50.158;8.642;2023-04-10T02:22:07;20.60;42.40
16404;DHT22;8311;50.158;8.642;2023-04-10T02:25:03;20.60;42.40
16404;DHT22;8311;50.158;8.642;2023-04-10T02:27:56;20.60;42.40
16404;DHT22;8311;50.158;8.642;2023-04-10T02:30:49;20.60;42.40
16404;DHT22;8311;50.158;8.642;2023-04-10T02:33:42;20.60;42.30
16404;DHT22;8311;50.158;8.642;2023-04-10T02:36:36;20.60;42.30
16404;DHT22;8311;50.158;8.642;2023-04-10T02:39:30;20.60;42.30
16404;DHT22;8311;50.158;8.642;2023-04-10T02:42:23;20.60;42.30
16404;DHT22;8311;50.158;8.642;2023-04-10T02:45:16;20.50;42.30
16404;DHT22;8311;50.158;8.642;2023-04-10T02:48:09;20.60;42.30
16404;DHT22;8311;50.158;8.642;2023-04-10T02:51:02;20.60;42.30
16404;DHT22;8311;50.158;8.642;2023-04-10T02:53:55;20.60;42.40
16404;DHT22;8311;50.158;8.642;2023-04-10T02:56:49;20.60;42.30
16404;DHT22;8311;50.158;8.642;2023-04-10T02:59:42;20.60;42.30
16404;DHT22;8311;50.158;8.642;2023-04-10T03:02:35;20.60;42.30
16404;DHT22;8311;50.158;8.642;2023-04-10T03:05:29;20.60;42.30
16404;DHT22;8311;50.158;8.642;2023-04-10T03:08:22;20.60;42.30
16404;DHT22;8311;50.158;8.642;2023-04-10T03:11:15;20.60;42.30
16404;DHT22;8311;50.158;8.642;2023-04-10T03:14:10;20.50;42.30
16404;DHT22;8311;50.158;8.642;2023-04-10T03:17:03;20.60;42.30
16404;DHT22;8311;50.158;8.642;2023-04-10T03:19:56;20.60;42.30
16404;DHT22;8311;50.158;8.642;2023-04-10T03:22:49;20.50;42.30
16404;DHT22;8311;50.158;8.642;2023-04-10T03:25:42;20.50;42.30
16404;DHT22;8311;50.158;8.642;2023-04-10T03:28:35;20.60;42.30
16404;DHT22;8311;50.158;8.642;2023-04-10T03:31:29;20.50;42.30
16404;DHT22;8311;50.158;8.642;2023-04-10T03:34:23;20.50;42.30
16404;DHT22;8311;50.158;8.642;2023-04-10T03:37:16;20.50;42.30
16404;DHT22;8311;50.158;8.642;2023-04-10T03:40:11;20.50;42.30
16404;DHT22;8311;50.158;8.642;2023-04-10T03:43:04;20.50;42.30
16404;DHT22;8311;50.158;8.642;2023-04-10T03:45:57;20.50;42.30
16404;DHT22;8311;50.158;8.642;2023-04-10T03:48:51;20.50;42.30
16404;DHT22;8311;50.158;8.642;2023-04-10T03:51:45;20.50;42.30
16404;DHT22;8311;50.158;8.642;2023-04-10T03:54:38;20.50;42.30
16404;DHT22;8311;50.158;8.642;2023-04-10T03:57:31;20.50;42.30
16404;DHT22;8311;50.158;8.642;2023-04-10T04:00:25;20.50;42.30
16404;DHT22;8311;50.158;8.642;2023-04-10T04:03:18;20.50;42.30
16404;DHT22;8311;50.158;8.642;2023-04-10T04:06:12;20.50;42.30
16404;DHT22;8311;50.158;8.642;2023-04-10T04:09:06;20.50;42.30
16404;DHT22;8311;50.158;8.642;2023-04-10T04:11:59;20.50;42.30
16404;DHT22;8311;50.158;8.642;2023-04-10T04:14:52;20.50;42.30
16404;DHT22;8311;50.158;8.642;2023-04-10T04:17:45;20.50;42.30
16404;DHT22;8311;50.158;8.642;2023-04-10T04:20:39;20.50;42.30
16404;DHT22;8311;50.158;8.642;2023-04-10T04:23:33;20.50;42.30
16404;DHT22;8311;50.158;8.642;2023-04-10T04:26:26;20.50;42.30
16404;DHT22;8311;50.158;8.642;2023-04-10T04:29:19;20.50;42.20
16404;DHT22;8311;50.158;8.642;2023-04-10T04:32:12;20.50;42.30
16404;DHT22;8311;50.158;8.642;2023-04-10T04:35:06;20.50;42.30
16404;DHT22;8311;50.158;8.642;2023-04-10T04:37:59;20.50;42.20
16404;DHT22;8311;50.158;8.642;2023-04-10T04:40:53;20.50;42.20
16404;DHT22;8311;50.158;8.642;2023-04-10T04:43:46;20.50;42.20
16404;DHT22;8311;50.158;8.642;2023-04-10T04:46:40;20.50;42.20
16404;DHT22;8311;50.158;8.642;2023-04-10T04:49:35;20.50;42.20
16404;DHT22;8311;50.158;8.642;2023-04-10T04:52:28;20.50;42.20
16404;DHT22;8311;50.158;8.642;2023-04-10T04:55:21;20.50;42.20
16404;DHT22;8311;50.158;8.642;2023-04-10T04:58:15;20.50;42.20
16404;DHT22;8311;50.158;8.642;2023-04-10T05:01:08;20.50;42.20
16404;DHT22;8311;50.158;8.642;2023-04-10T05:04:01;20.50;42.20
16404;DHT22;8311;50.158;8.642;2023-04-10T05:06:55;20.50;42.20
16404;DHT22;8311;50.158;8.642;2023-04-10T05:09:48;20.50;42.20
16404;DHT22;8311;50.158;8.642;2023-04-10T05:12:41;20.50;42.20
16404;DHT22;8311;50.158;8.642;2023-04-10T05:15:35;20.50;42.20
16404;DHT22;8311;50.158;8.642;2023-04-10T05:18:29;20.50;42.90
16404;DHT22;8311;50.158;8.642;2023-04-10T05:21:22;20.50;42.20
16404;DHT22;8311;50.158;8.642;2023-04-10T05:24:15;20.50;42.20
16404;DHT22;8311;50.158;8.642;2023-04-10T05:27:08;20.50;42.20
16404;DHT22;8311;50.158;8.642;2023-04-10T05:30:02;20.50;42.20
16404;DHT22;8311;50.158;8.642;2023-04-10T05:32:57;20.50;42.20
16404;DHT22;8311;50.158;8.642;2023-04-10T05:35:51;20.50;42.20
16404;DHT22;8311;50.158;8.642;2023-04-10T05:38:45;20.50;42.20
16404;DHT22;8311;50.158;8.642;2023-04-10T05:41:38;20.50;42.20
16404;DHT22;8311;50.158;8.642;2023-04-10T05:44:31;20.50;42.20
16404;DHT22;8311;50.158;8.642;2023-04-10T05:47:25;20.50;42.20
16404;DHT22;8311;50.158;8.642;2023-04-10T05:50:20;20.50;42.20
16404;DHT22;8311;50.158;8.642;2023-04-10T05:53:14;20.50;42.20
16404;DHT22;8311;50.158;8.642;2023-04-10T05:56:07;20.50;42.30
16404;DHT22;8311;50.158;8.642;2023-04-10T05:59:00;20.50;42.20
16404;DHT22;8311;50.158;8.642;2023-04-10T06:01:55;20.50;42.20
16404;DHT22;8311;50.158;8.642;2023-04-10T06:04:50;20.50;42.20
16404;DHT22;8311;50.158;8.642;2023-04-10T06:07:44;20.50;42.20
16404;DHT22;8311;50.158;8.642;2023-04-10T06:10:39;20.50;42.20
16404;DHT22;8311;50.158;8.642;2023-04-10T06:13:32;20.50;42.20
16404;DHT22;8311;50.158;8.642;2023-04-10T06:16:27;20.50;42.20
16404;DHT22;8311;50.158;8.642;2023-04-10T06:19:20;20.50;42.20
16404;DHT22;8311;50.158;8.642;2023-04-10T06:22:13;20.50;42.20
16404;DHT22;8311;50.158;8.642;2023-04-10T06:25:08;20.50;42.20
16404;DHT22;8311;50.158;8.642;2023-04-10T06:28:01;20.50;42.20
16404;DHT22;8311;50.158;8.642;2023-04-10T06:30:54;20.50;42.20
16404;DHT22;8311;50.158;8.642;2023-04-10T06:33:48;20.50;42.20
16404;DHT22;8311;50.158;8.642;2023-04-10T06:36:42;20.50;42.10
16404;DHT22;8311;50.158;8.642;2023-04-10T06:39:35;20.50;42.10
16404;DHT22;8311;50.158;8.642;2023-04-10T06:42:32;20.50;42.10
16404;DHT22;8311;50.158;8.642;2023-04-10T06:45:25;20.50;42.20
16404;DHT22;8311;50.158;8.642;2023-04-10T06:48:18;20.50;42.20
16404;DHT22;8311;50.158;8.642;2023-04-10T06:51:11;20.50;42.10
16404;DHT22;8311;50.158;8.642;2023-04-10T06:54:04;20.50;42.10
16404;DHT22;8311;50.158;8.642;2023-04-10T06:56:57;20.50;42.10
16404;DHT22;8311;50.158;8.642;2023-04-10T06:59:52;20.50;42.10
16404;DHT22;8311;50.158;8.642;2023-04-10T07:02:45;20.60;42.10
16404;DHT22;8311;50.158;8.642;2023-04-10T07:05:39;20.60;42.00
16404;DHT22;8311;50.158;8.642;2023-04-10T07:08:33;20.60;42.00
16404;DHT22;8311;50.158;8.642;2023-04-10T07:11:26;20.70;42.10
16404;DHT22;8311;50.158;8.642;2023-04-10T07:14:19;20.70;42.20
16404;DHT22;8311;50.158;8.642;2023-04-10T07:17:13;20.70;42.20
16404;DHT22;8311;50.158;8.642;2023-04-10T07:20:08;20.70;42.20
16404;DHT22;8311;50.158;8.642;2023-04-10T07:23:02;20.80;42.30
16404;DHT22;8311;50.158;8.642;2023-04-10T07:25:55;20.80;42.30
16404;DHT22;8311;50.158;8.642;2023-04-10T07:28:49;20.90;42.40
16404;DHT22;8311;50.158;8.642;2023-04-10T07:31:43;20.90;42.30
16404;DHT22;8311;50.158;8.642;2023-04-10T07:34:38;20.90;42.30
16404;DHT22;8311;50.158;8.642;2023-04-10T07:37:32;20.90;42.40
16404;DHT22;8311;50.158;8.642;2023-04-10T07:40:25;21.00;42.40
16404;DHT22;8311;50.158;8.642;2023-04-10T07:43:18;21.00;42.40
16404;DHT22;8311;50.158;8.642;2023-04-10T07:46:13;21.10;42.50
16404;DHT22;8311;50.158;8.642;2023-04-10T07:49:06;21.20;42.50
16404;DHT22;8311;50.158;8.642;2023-04-10T07:52:00;21.20;42.50
16404;DHT22;8311;50.158;8.642;2023-04-10T07:54:53;21.20;42.50
16404;DHT22;8311;50.158;8.642;2023-04-10T07:57:46;21.20;42.50
16404;DHT22;8311;50.158;8.642;2023-04-10T08:00:39;21.30;42.50
16404;DHT22;8311;50.158;8.642;2023-04-10T08:03:37;21.30;42.40
16404;DHT22;8311;50.158;8.642;2023-04-10T08:06:30;21.40;42.50
16404;DHT22;8311;50.158;8.642;2023-04-10T08:09:26;21.40;42.50
16404;DHT22;8311;50.158;8.642;2023-04-10T08:12:19;21.40;42.50
16404;DHT22;8311;50.158;8.642;2023-04-10T08:15:12;21.50;42.50
16404;DHT22;8311;50.158;8.642;2023-04-10T08:18:05;21.50;42.50
16404;DHT22;8311;50.158;8.642;2023-04-10T08:20:58;21.60;42.50
16404;DHT22;8311;50.158;8.642;2023-04-10T08:23:52;21.60;42.50
16404;DHT22;8311;50.158;8.642;2023-04-10T08:26:48;21.70;42.50
16404;DHT22;8311;50.158;8.642;2023-04-10T08:29:41;21.70;42.50
16404;DHT22;8311;50.158;8.642;2023-04-10T08:32:34;21.80;42.50
16404;DHT22;8311;50.158;8.642;2023-04-10T08:35:27;21.80;42.50
16404;DHT22;8311;50.158;8.642;2023-04-10T08:38:20;21.90;42.50
16404;DHT22;8311;50.158;8.642;2023-04-10T08:41:17;21.90;42.50
16404;DHT22;8311;50.158;8.642;2023-04-10T08:44:12;21.90;42.40
16404;DHT22;8311;50.158;8.642;2023-04-10T08:47:06;22.00;42.40
16404;DHT22;8311;50.158;8.642;2023-04-10T08:50:05;22.10;42.50
16404;DHT22;8311;50.158;8.642;2023-04-10T08:53:06;22.10;42.50
16404;DHT22;8311;50.158;8.642;2023-04-10T08:56:02;22.20;42.40
16404;DHT22;8311;50.158;8.642;2023-04-10T08:58:56;22.20;42.40
16404;DHT22;8311;50.158;8.642;2023-04-10T09:01:51;22.30;42.40
16404;DHT22;8311;50.158;8.642;2023-04-10T09:04:46;22.30;43.00
16404;DHT22;8311;50.158;8.642;2023-04-10T09:07:40;22.30;42.40
16404;DHT22;8311;50.158;8.642;2023-04-10T09:10:33;22.40;42.40
16404;DHT22;8311;50.158;8.642;2023-04-10T09:13:38;22.40;42.30
16404;DHT22;8311;50.158;8.642;2023-04-10T09:16:31;22.50;42.30
16404;DHT22;8311;50.158;8.642;2023-04-10T09:19:32;22.50;42.30
16404;DHT22;8311;50.158;8.642;2023-04-10T09:22:29;22.60;42.30
16404;DHT22;8311;50.158;8.642;2023-04-10T09:25:32;22.60;42.20
16404;DHT22;8311;50.158;8.642;2023-04-10T09:28:25;22.70;42.30
16404;DHT22;8311;50.158;8.642;2023-04-10T09:31:27;22.70;42.20
16404;DHT22;8311;50.158;8.642;2023-04-10T09:34:21;22.70;42.20
16404;DHT22;8311;50.158;8.642;2023-04-10T09:37:18;22.80;42.20
16404;DHT22;8311;50.158;8.642;2023-04-10T09:40:20;22.80;42.20
16404;DHT22;8311;50.158;8.642;2023-04-10T09:43:22;22.80;42.10
16404;DHT22;8311;50.158;8.642;2023-04-10T09:46:25;22.70;42.80
16404;DHT22;8311;50.158;8.642;2023-04-10T09:49:19;22.70;42.10
16404;DHT22;8311;50.158;8.642;2023-04-10T09:52:21;22.70;42.00
16404;DHT22;8311;50.158;8.642;2023-04-10T09:55:16;22.70;42.00
16404;DHT22;8311;50.158;8.642;2023-04-10T09:58:10;22.80;42.00
16404;DHT22;8311;50.158;8.642;2023-04-10T10:01:04;22.70;41.90
16404;DHT22;8311;50.158;8.642;2023-04-10T10:04:00;22.80;41.90
16404;DHT22;8311;50.158;8.642;2023-04-10T10:06:54;22.80;41.90
16404;DHT22;8311;50.158;8.642;2023-04-10T10:09:50;22.80;41.90
16404;DHT22;8311;50.158;8.642;2023-04-10T10:12:47;22.80;41.90
16404;DHT22;8311;50.158;8.642;2023-04-10T10:15:45;22.90;41.90
16404;DHT22;8311;50.158;8.642;2023-04-10T10:18:44;22.90;42.00
16404;DHT22;8311;50.158;8.642;2023-04-10T10:21:42;22.90;41.90
16404;DHT22;8311;50.158;8.642;2023-04-10T10:24:37;22.90;41.90
16404;DHT22;8311;50.158;8.642;2023-04-10T10:27:36;22.90;41.90
16404;DHT22;8311;50.158;8.642;2023-04-10T10:30:31;23.00;42.00
16404;DHT22;8311;50.158;8.642;2023-04-10T10:33:25;23.00;42.00
16404;DHT22;8311;50.158;8.642;2023-04-10T10:36:19;23.00;41.90
16404;DHT22;8311;50.158;8.642;2023-04-10T10:39:25;23.10;41.90
16404;DHT22;8311;50.158;8.642;2023-04-10T10:42:27;23.10;41.90
16404;DHT22;8311;50.158;8.642;2023-04-10T10:45:29;23.20;42.00
16404;DHT22;8311;50.158;8.642;2023-04-10T10:48:22;23.20;41.90
16404;DHT22;8311;50.158;8.642;2023-04-10T10:51:16;23.20;41.90
16404;DHT22;8311;50.158;8.642;2023-04-10T10:54:27;23.30;41.90
16404;DHT22;8311;50.158;8.642;2023-04-10T10:57:44;23.30;41.80
16404;DHT22;8311;50.158;8.642;2023-04-10T11:01:07;23.30;41.80
16404;DHT22;8311;50.158;8.642;2023-04-10T11:04:41;23.40;41.80
16404;DHT22;8311;50.158;8.642;2023-04-10T11:08:06;23.40;41.80
16404;DHT22;8311;50.158;8.642;2023-04-10T11:11:00;23.40;41.70
16404;DHT22;8311;50.158;8.642;2023-04-10T11:14:13;23.50;41.70
16404;DHT22;8311;50.158;8.642;2023-04-10T11:17:12;23.50;41.80
16404;DHT22;8311;50.158;8.642;2023-04-10T11:20:06;23.50;41.70
16404;DHT22;8311;50.158;8.642;2023-04-10T11:23:10;23.50;41.70
16404;DHT22;8311;50.158;8.642;2023-04-10T11:26:04;23.50;41.70
16404;DHT22;8311;50.158;8.642;2023-04-10T11:28:57;23.50;41.60
16404;DHT22;8311;50.158;8.642;2023-04-10T11:31:54;23.50;41.70
16404;DHT22;8311;50.158;8.642;2023-04-10T11:34:50;23.50;41.70
16404;DHT22;8311;50.158;8.642;2023-04-10T11:37:43;23.50;41.70
16404;DHT22;8311;50.158;8.642;2023-04-10T11:40:52;23.50;41.70
16404;DHT22;8311;50.158;8.642;2023-04-10T11:43:50;23.50;41.70
16404;DHT22;8311;50.158;8.642;2023-04-10T11:46:44;23.50;41.70
16404;DHT22;8311;50.158;8.642;2023-04-10T11:49:37;23.40;41.70
16404;DHT22;8311;50.158;8.642;2023-04-10T11:52:32;23.50;41.70
16404;DHT22;8311;50.158;8.642;2023-04-10T11:55:35;23.40;41.70
16404;DHT22;8311;50.158;8.642;2023-04-10T11:58:29;23.40;41.70
16404;DHT22;8311;50.158;8.642;2023-04-10T12:01:22;23.40;41.70
16404;DHT22;8311;50.158;8.642;2023-04-10T12:04:16;23.40;41.80
16404;DHT22;8311;50.158;8.642;2023-04-10T12:07:10;23.40;41.80
16404;DHT22;8311;50.158;8.642;2023-04-10T12:10:07;23.40;41.80
16404;DHT22;8311;50.158;8.642;2023-04-10T12:12:59;23.40;42.40
16404;DHT22;8311;50.158;8.642;2023-04-10T12:15:53;23.30;41.80
16404;DHT22;8311;50.158;8.642;2023-04-10T12:18:47;23.30;41.90
16404;DHT22;8311;50.158;8.642;2023-04-10T12:21:42;23.30;41.90
16404;DHT22;8311;50.158;8.642;2023-04-10T12:24:40;23.30;41.90
16404;DHT22;8311;50.158;8.642;2023-04-10T12:27:35;23.30;41.90
16404;DHT22;8311;50.158;8.642;2023-04-10T12:30:27;23.30;41.90
16404;DHT22;8311;50.158;8.642;2023-04-10T12:33:21;23.20;41.90
16404;DHT22;8311;50.158;8.642;2023-04-10T12:36:20;23.30;42.00
16404;DHT22;8311;50.158;8.642;2023-04-10T12:39:21;23.20;41.90
16404;DHT22;8311;50.158;8.642;2023-04-10T12:42:16;23.20;41.90
16404;DHT22;8311;50.158;8.642;2023-04-10T12:45:11;23.20;42.00
16404;DHT22;8311;50.158;8.642;2023-04-10T12:48:05;23.20;42.00
16404;DHT22;8311;50.158;8.642;2023-04-10T12:51:00;23.20;42.00
16404;DHT22;8311;50.158;8.642;2023-04-10T12:53:54;23.20;42.00
16404;DHT22;8311;50.158;8.642;2023-04-10T12:56:47;23.20;42.00
16404;DHT22;8311;50.158;8.642;2023-04-10T12:59:41;23.20;42.00
16404;DHT22;8311;50.158;8.642;2023-04-10T13:02:38;23.20;42.10
16404;DHT22;8311;50.158;8.642;2023-04-10T13:05:31;23.20;42.10
16404;DHT22;8311;50.158;8.642;2023-04-10T13:08:25;23.20;42.10
16404;DHT22;8311;50.158;8.642;2023-04-10T13:11:17;23.10;42.10
16404;DHT22;8311;50.158;8.642;2023-04-10T13:14:11;23.10;42.10
16404;DHT22;8311;50.158;8.642;2023-04-10T13:17:04;23.10;42.20
16404;DHT22;8311;50.158;8.642;2023-04-10T13:19:59;23.10;42.20
16404;DHT22;8311;50.158;8.642;2023-04-10T13:22:52;23.10;42.20
16404;DHT22;8311;50.158;8.642;2023-04-10T13:25:46;23.10;42.20
16404;DHT22;8311;50.158;8.642;2023-04-10T13:28:39;23.10;42.20
16404;DHT22;8311;50.158;8.642;2023-04-10T13:31:33;23.10;42.20
16404;DHT22;8311;50.158;8.642;2023-04-10T13:34:26;23.10;42.20
16404;DHT22;8311;50.158;8.642;2023-04-10T13:37:21;23.10;42.30
16404;DHT22;8311;50.158;8.642;2023-04-10T13:40:15;23.00;42.20
16404;DHT22;8311;50.158;8.642;2023-04-10T13:43:08;23.00;42.20
16404;DHT22;8311;50.158;8.642;2023-04-10T13:46:01;23.00;42.20
16404;DHT22;8311;50.158;8.642;2023-04-10T13:48:54;23.00;42.20
16404;DHT22;8311;50.158;8.642;2023-04-10T13:51:48;23.00;42.30
16404;DHT22;8311;50.158;8.642;2023-04-10T13:54:43;23.00;42.30
16404;DHT22;8311;50.158;8.642;2023-04-10T13:57:35;23.00;42.30
16404;DHT22;8311;50.158;8.642;2023-04-10T14:00:28;23.00;42.30
16404;DHT22;8311;50.158;8.642;2023-04-10T14:03:21;23.00;42.30
16404;DHT22;8311;50.158;8.642;2023-04-10T14:06:14;22.90;42.30
16404;DHT22;8311;50.158;8.642;2023-04-10T14:09:08;22.90;42.30
16404;DHT22;8311;50.158;8.642;2023-04-10T14:12:02;22.90;42.30
16404;DHT22;8311;50.158;8.642;2023-04-10T14:14:56;22.90;42.30
16404;DHT22;8311;50.158;8.642;2023-04-10T14:17:50;22.90;42.30
16404;DHT22;8311;50.158;8.642;2023-04-10T14:20:43;22.90;42.30
16404;DHT22;8311;50.158;8.642;2023-04-10T14:23:35;22.90;42.30
16404;DHT22;8311;50.158;8.642;2023-04-10T14:26:29;22.90;42.40
16404;DHT22;8311;50.158;8.642;2023-04-10T14:29:24;22.90;42.40
16404;DHT22;8311;50.158;8.642;2023-04-10T14:32:32;22.90;42.40
16404;DHT22;8311;50.158;8.642;2023-04-10T14:35:25;22.90;42.40
16404;DHT22;8311;50.158;8.642;2023-04-10T14:38:18;22.80;42.40
16404;DHT22;8311;50.158;8.642;2023-04-10T14:41:11;22.90;42.50
16404;DHT22;8311;50.158;8.642;2023-04-10T14:44:05;22.80;42.40
16404;DHT22;8311;50.158;8.642;2023-04-10T14:46:59;22.80;42.40
16404;DHT22;8311;50.158;8.642;2023-04-10T14:49:53;22.80;42.40
16404;DHT22;8311;50.158;8.642;2023-04-10T14:52:46;22.80;42.50
16404;DHT22;8311;50.158;8.642;2023-04-10T14:55:40;22.80;42.50
16404;DHT22;8311;50.158;8.642;2023-04-10T14:58:33;22.80;42.50
16404;DHT22;8311;50.158;8.642;2023-04-10T15:01:26;22.80;42.50
16404;DHT22;8311;50.158;8.642;2023-04-10T15:04:20;22.80;42.50
16404;DHT22;8311;50.158;8.642;2023-04-10T15:07:13;22.80;42.50
16404;DHT22;8311;50.158;8.642;2023-04-10T15:10:07;22.70;42.50
16404;DHT22;8311;50.158;8.642;2023-04-10T15:13:01;22.80;42.50
16404;DHT22;8311;50.158;8.642;2023-04-10T15:15:55;22.70;42.50
16404;DHT22;8311;50.158;8.642;2023-04-10T15:18:48;22.70;42.50
16404;DHT22;8311;50.158;8.642;2023-04-10T15:21:43;22.70;42.60
16404;DHT22;8311;50.158;8.642;2023-04-10T15:24:36;22.70;42.60
16404;DHT22;8311;50.158;8.642;2023-04-10T15:27:42;22.70;42.70
16404;DHT22;8311;50.158;8.642;2023-04-10T15:30:35;22.70;42.60
16404;DHT22;8311;50.158;8.642;2023-04-10T15:33:28;22.70;42.60
16404;DHT22;8311;50.158;8.642;2023-04-10T15:36:21;22.70;42.60
16404;DHT22;8311;50.158;8.642;2023-04-10T15:39:15;22.70;42.60
16404;DHT22;8311;50.158;8.642;2023-04-10T15:42:09;22.60;42.60
16404;DHT22;8311;50.158;8.642;2023-04-10T15:45:02;22.60;42.60
16404;DHT22;8311;50.158;8.642;2023-04-10T15:47:55;22.60;42.60
16404;DHT22;8311;50.158;8.642;2023-04-10T15:50:49;22.60;42.60
16404;DHT22;8311;50.158;8.642;2023-04-10T15:53:43;22.60;42.60
16404;DHT22;8311;50.158;8.642;2023-04-10T15:56:37;22.60;42.70
16404;DHT22;8311;50.158;8.642;2023-04-10T15:59:32;22.60;42.60
16404;DHT22;8311;50.158;8.642;2023-04-10T16:02:26;22.60;42.70
16404;DHT22;8311;50.158;8.642;2023-04-10T16:05:20;22.60;42.70
16404;DHT22;8311;50.158;8.642;2023-04-10T16:08:13;22.60;42.70
16404;DHT22;8311;50.158;8.642;2023-04-10T16:11:06;22.60;42.70
16404;DHT22;8311;50.158;8.642;2023-04-10T16:14:01;22.60;42.70
16404;DHT22;8311;50.158;8.642;2023-04-10T16:16:55;22.60;42.70
16404;DHT22;8311;50.158;8.642;2023-04-10T16:19:48;22.60;42.70
16404;DHT22;8311;50.158;8.642;2023-04-10T16:22:41;22.50;42.70
16404;DHT22;8311;50.158;8.642;2023-04-10T16:25:34;22.50;42.70
16404;DHT22;8311;50.158;8.642;2023-04-10T16:28:27;22.50;42.70
16404;DHT22;8311;50.158;8.642;2023-04-10T16:31:21;22.50;42.80
16404;DHT22;8311;50.158;8.642;2023-04-10T16:34:15;22.50;42.70
16404;DHT22;8311;50.158;8.642;2023-04-10T16:37:09;22.50;42.80
16404;DHT22;8311;50.158;8.642;2023-04-10T16:40:02;22.50;42.70
16404;DHT22;8311;50.158;8.642;2023-04-10T16:42:55;22.50;42.70
16404;DHT22;8311;50.158;8.642;2023-04-10T16:45:53;22.50;42.80
16404;DHT22;8311;50.158;8.642;2023-04-10T16:48:48;22.50;42.80
16404;DHT22;8311;50.158;8.642;2023-04-10T16:51:42;22.50;42.80
16404;DHT22;8311;50.158;8.642;2023-04-10T16:54:36;22.50;42.80
16404;DHT22;8311;50.158;8.642;2023-04-10T16:57:29;22.50;42.80
16404;DHT22;8311;50.158;8.642;2023-04-10T17:00:22;22.40;42.70
16404;DHT22;8311;50.158;8.642;2023-04-10T17:03:16;22.50;42.80
16404;DHT22;8311;50.158;8.642;2023-04-10T17:06:11;22.50;42.80
16404;DHT22;8311;50.158;8.642;2023-04-10T17:09:04;22.40;42.80
16404;DHT22;8311;50.158;8.642;2023-04-10T17:11:57;22.40;42.80
16404;DHT22;8311;50.158;8.642;2023-04-10T17:14:50;22.40;42.80
16404;DHT22;8311;50.158;8.642;2023-04-10T17:17:43;22.40;42.80
16404;DHT22;8311;50.158;8.642;2023-04-10T17:20:36;22.40;42.80
16404;DHT22;8311;50.158;8.642;2023-04-10T17:23:30;22.40;42.80
16404;DHT22;8311;50.158;8.642;2023-04-10T17:26:24;22.40;42.80
16404;DHT22;8311;50.158;8.642;2023-04-10T17:29:17;22.40;42.80
16404;DHT22;8311;50.158;8.642;2023-04-10T17:32:09;22.40;42.80
16404;DHT22;8311;50.158;8.642;2023-04-10T17:35:03;22.40;42.80
16404;DHT22;8311;50.158;8.642;2023-04-10T17:37:56;22.40;42.80
16404;DHT22;8311;50.158;8.642;2023-04-10T17:40:51;22.30;42.80
16404;DHT22;8311;50.158;8.642;2023-04-10T17:43:44;22.40;42.90
16404;DHT22;8311;50.158;8.642;2023-04-10T17:46:37;22.40;42.90
16404;DHT22;8311;50.158;8.642;2023-04-10T17:49:30;22.30;42.80
16404;DHT22;8311;50.158;8.642;2023-04-10T17:52:24;22.30;42.80
16404;DHT22;8311;50.158;8.642;2023-04-10T17:55:17;22.30;42.90
16404;DHT22;8311;50.158;8.642;2023-04-10T17:58:13;22.30;42.90
16404;DHT22;8311;50.158;8.642;2023-04-10T18:01:06;22.30;42.90
16404;DHT22;8311;50.158;8.642;2023-04-10T18:03:59;22.30;42.90
16404;DHT22;8311;50.158;8.642;2023-04-10T18:06:54;22.30;42.90
16404;DHT22;8311;50.158;8.642;2023-04-10T18:09:47;22.30;42.90
16404;DHT22;8311;50.158;8.642;2023-04-10T18:12:40;22.20;42.90
16404;DHT22;8311;50.158;8.642;2023-04-10T18:15:34;22.30;42.90
16404;DHT22;8311;50.158;8.642;2023-04-10T18:18:28;22.20;42.90
16404;DHT22;8311;50.158;8.642;2023-04-10T18:21:21;22.30;42.90
16404;DHT22;8311;50.158;8.642;2023-04-10T18:24:15;22.30;43.00
16404;DHT22;8311;50.158;8.642;2023-04-10T18:27:08;22.20;43.50
16404;DHT22;8311;50.158;8.642;2023-04-10T18:30:01;22.30;43.00
16404;DHT22;8311;50.158;8.642;2023-04-10T18:32:55;22.20;42.90
16404;DHT22;8311;50.158;8.642;2023-04-10T18:35:49;22.30;42.90
16404;DHT22;8311;50.158;8.642;2023-04-10T18:38:43;22.20;42.90
16404;DHT22;8311;50.158;8.642;2023-04-10T18:41:36;22.20;42.90
16404;DHT22;8311;50.158;8.642;2023-04-10T18:44:30;22.20;43.20